createdAt,value
2019-03-24T00:01:28.546Z,68.92
2019-03-24T00:04:05.821Z,71.59
2019-03-24T00:06:36.522Z,71.06
2019-03-24T00:09:09.099Z,71.45
2019-03-24T00:11:40.280Z,68.49
2019-03-24T00:14:10.996Z,68.58
2019-03-24T00:16:42.080Z,68.60
2019-03-24T00:19:13.454Z,69.01
2019-03-24T00:21:44.143Z,67.14
2019-03-24T00:24:14.966Z,68.63
2019-03-24T00:26:46.783Z,68.58
2019-03-24T00:29:17.788Z,68.47
2019-03-24T00:31:48.801Z,68.98
2019-03-24T00:34:19.550Z,67.20
2019-03-24T00:36:50.889Z,67.29
2019-03-24T00:39:21.825Z,67.02
2019-03-24T00:41:52.637Z,65.53
2019-03-24T00:44:27.755Z,65.41
2019-03-24T00:46:58.925Z,65.74
2019-03-24T00:49:29.719Z,65.39
2019-03-24T00:52:01.101Z,64.46
2019-03-24T00:54:31.953Z,65.73
2019-03-24T00:57:02.962Z,63.93
2019-03-24T00:59:33.827Z,64.43
2019-03-24T01:02:04.695Z,65.57
2019-03-24T01:04:35.544Z,63.87
2019-03-24T01:07:06.542Z,63.57
2019-03-24T01:09:37.659Z,63.36
2019-03-24T01:12:11.440Z,62.83
2019-03-24T01:14:42.149Z,64.58
2019-03-24T01:17:12.964Z,64.22
2019-03-24T01:19:43.731Z,63.61
2019-03-24T01:22:14.662Z,63.78
2019-03-24T01:24:45.707Z,63.67
2019-03-24T01:27:16.380Z,62.89
2019-03-24T01:29:47.141Z,62.54
2019-03-24T01:32:18.123Z,63.42
2019-03-24T01:34:48.830Z,63.36
2019-03-24T01:37:19.520Z,61.78
2019-03-24T01:39:50.585Z,62.87
2019-03-24T01:42:21.723Z,63.77
2019-03-24T01:44:52.742Z,63.78
2019-03-24T01:47:23.438Z,63.73
2019-03-24T01:49:54.710Z,63.28
2019-03-24T01:52:25.540Z,64.48
2019-03-24T01:54:56.258Z,64.77
2019-03-24T01:57:26.951Z,64.20
2019-03-24T01:59:57.707Z,63.29
2019-03-24T02:02:28.508Z,63.80
2019-03-24T02:04:59.450Z,64.52
2019-03-24T02:07:30.183Z,63.49
2019-03-24T02:10:01.193Z,63.59
2019-03-24T02:12:32.077Z,63.74
2019-03-24T02:15:02.882Z,64.47
2019-03-24T02:17:33.573Z,63.23
2019-03-24T02:20:04.985Z,62.87
2019-03-24T02:22:36.456Z,62.87
2019-03-24T02:25:07.676Z,63.74
2019-03-24T02:27:38.423Z,63.74
2019-03-24T02:30:10.442Z,63.80
2019-03-24T02:32:41.392Z,63.73
2019-03-24T02:35:12.369Z,64.67
2019-03-24T02:37:43.102Z,64.37
2019-03-24T02:40:13.981Z,63.98
2019-03-24T02:42:45.153Z,64.68
2019-03-24T02:45:16.508Z,64.58
2019-03-24T02:47:47.311Z,65.51
2019-03-24T02:50:18.416Z,63.51
2019-03-24T02:52:49.540Z,63.96
2019-03-24T02:55:20.350Z,62.64
2019-03-24T02:57:51.188Z,62.33
2019-03-24T03:00:22.059Z,61.76
2019-03-24T03:02:52.955Z,62.29
2019-03-24T03:05:23.682Z,61.79
2019-03-24T03:07:54.351Z,62.56
2019-03-24T03:10:25.139Z,62.57
2019-03-24T03:12:55.849Z,62.17
2019-03-24T03:15:26.783Z,62.99
2019-03-24T03:17:57.531Z,64.01
2019-03-24T03:20:28.203Z,63.79
2019-03-24T03:22:58.851Z,63.49
2019-03-24T03:25:29.584Z,63.41
2019-03-24T03:28:00.295Z,62.36
2019-03-24T03:30:30.983Z,62.96
2019-03-24T03:33:01.703Z,63.03
2019-03-24T03:35:32.399Z,62.52
2019-03-24T03:38:03.127Z,63.45
2019-03-24T03:40:33.780Z,63.26
2019-03-24T03:43:04.818Z,63.18
2019-03-24T03:45:39.038Z,62.43
2019-03-24T03:48:08.209Z,63.01
2019-03-24T03:50:38.980Z,62.62
2019-03-24T03:53:10.134Z,62.23
2019-03-24T03:55:40.793Z,61.87
2019-03-24T03:58:11.743Z,61.98
2019-03-24T04:00:43.210Z,62.58
2019-03-24T04:03:14.082Z,62.42
2019-03-24T04:05:44.884Z,62.71
2019-03-24T04:08:15.846Z,62.87
2019-03-24T04:10:46.658Z,61.96
2019-03-24T04:13:17.589Z,62.73
2019-03-24T04:15:48.585Z,62.87
2019-03-24T04:18:19.402Z,62.51
2019-03-24T04:20:50.507Z,63.01
2019-03-24T04:23:21.197Z,63.31
2019-03-24T04:25:51.867Z,62.85
2019-03-24T04:28:22.552Z,62.75
2019-03-24T04:30:53.252Z,63.39
2019-03-24T04:33:24.679Z,63.23
2019-03-24T04:35:55.333Z,63.75
2019-03-24T04:38:26.013Z,63.20
2019-03-24T04:40:56.698Z,63.30
2019-03-24T04:43:28.059Z,63.86
2019-03-24T04:45:58.738Z,64.21
2019-03-24T04:48:29.856Z,64.92
2019-03-24T04:51:00.588Z,64.82
2019-03-24T04:53:31.288Z,64.36
2019-03-24T04:56:02.040Z,63.93
2019-03-24T04:58:33.146Z,64.10
2019-03-24T05:01:03.902Z,64.46
2019-03-24T05:03:35.391Z,64.09
2019-03-24T05:06:06.248Z,65.12
2019-03-24T05:08:38.063Z,64.22
2019-03-24T05:11:09.001Z,63.76
2019-03-24T05:13:40.019Z,63.52
2019-03-24T05:16:10.681Z,64.12
2019-03-24T05:18:41.572Z,63.33
2019-03-24T05:21:12.255Z,63.20
2019-03-24T05:23:43.174Z,63.23
2019-03-24T05:26:13.860Z,63.27
2019-03-24T05:28:44.800Z,63.21
2019-03-24T05:31:15.470Z,63.07
2019-03-24T05:33:46.455Z,63.63
2019-03-24T05:36:17.127Z,63.11
2019-03-24T05:38:47.836Z,62.28
2019-03-24T05:41:18.515Z,62.03
2019-03-24T05:43:49.307Z,62.41
2019-03-24T05:46:20.009Z,62.96
2019-03-24T05:48:51.858Z,62.70
2019-03-24T05:51:23.171Z,62.39
2019-03-24T05:53:54.109Z,62.33
2019-03-24T05:56:24.794Z,62.34
2019-03-24T05:58:55.499Z,62.91
2019-03-24T06:01:26.201Z,63.69
2019-03-24T06:03:57.118Z,63.34
2019-03-24T06:06:27.784Z,63.60
2019-03-24T06:08:58.448Z,62.96
2019-03-24T06:11:29.355Z,62.65
2019-03-24T06:14:00.029Z,62.46
2019-03-24T06:16:30.941Z,61.95
2019-03-24T06:19:01.752Z,60.91
2019-03-24T06:21:33.109Z,60.77
2019-03-24T06:24:03.813Z,60.37
2019-03-24T06:26:34.722Z,60.03
2019-03-24T06:29:05.476Z,59.95
2019-03-24T06:31:36.564Z,61.12
2019-03-24T06:34:07.280Z,61.40
2019-03-24T06:36:37.967Z,61.48
2019-03-24T06:39:09.497Z,61.28
2019-03-24T06:41:40.175Z,60.65
2019-03-24T06:44:11.295Z,60.51
2019-03-24T06:46:42.002Z,61.63
2019-03-24T06:49:12.719Z,61.52
2019-03-24T06:51:43.807Z,59.96
2019-03-24T06:54:14.509Z,58.96
2019-03-24T06:56:45.171Z,58.94
2019-03-24T06:59:15.943Z,60.68
2019-03-24T07:01:46.704Z,60.91
2019-03-24T07:04:17.381Z,59.50
2019-03-24T07:06:48.328Z,60.27
2019-03-24T07:09:19.013Z,59.28
2019-03-24T07:11:50.061Z,57.64
2019-03-24T07:14:20.942Z,56.86
2019-03-24T07:16:51.667Z,57.31
2019-03-24T07:19:22.362Z,57.08
2019-03-24T07:21:53.023Z,61.01
2019-03-24T07:24:23.858Z,59.13
2019-03-24T07:26:54.762Z,59.41
2019-03-24T07:29:25.552Z,57.49
2019-03-24T07:31:56.247Z,58.79
2019-03-24T07:34:27.029Z,57.37
2019-03-24T07:36:57.721Z,58.46
2019-03-24T07:39:28.407Z,57.00
2019-03-24T07:41:59.097Z,59.39
2019-03-24T07:44:29.784Z,58.83
2019-03-24T07:47:00.700Z,56.92
2019-03-24T07:49:31.389Z,58.36
2019-03-24T07:52:02.064Z,56.50
2019-03-24T07:54:32.757Z,58.75
2019-03-24T07:57:03.597Z,57.14
2019-03-24T07:59:34.370Z,59.84
2019-03-24T08:02:05.255Z,59.71
2019-03-24T08:04:35.952Z,62.20
2019-03-24T08:07:06.639Z,61.68
2019-03-24T08:09:37.404Z,61.58
2019-03-24T08:12:08.163Z,59.78
2019-03-24T08:14:39.397Z,58.98
2019-03-24T08:17:10.575Z,57.81
2019-03-24T08:19:41.295Z,58.17
2019-03-24T08:22:11.983Z,60.65
2019-03-24T08:24:42.894Z,59.32
2019-03-24T08:27:13.565Z,59.12
2019-03-24T08:29:44.287Z,57.01
2019-03-24T08:32:14.941Z,58.34
2019-03-24T08:34:48.351Z,56.07
2019-03-24T08:37:18.469Z,56.60
2019-03-24T08:39:49.183Z,55.54
2019-03-24T08:42:19.849Z,53.80
2019-03-24T08:44:50.832Z,54.44
2019-03-24T08:47:21.661Z,55.68
2019-03-24T08:49:52.330Z,56.43
2019-03-24T08:52:23.423Z,56.17
2019-03-24T08:54:54.072Z,55.40
2019-03-24T08:57:24.826Z,55.97
2019-03-24T08:59:55.578Z,51.80
2019-03-24T09:02:26.276Z,51.50
2019-03-24T09:04:57.045Z,51.88
2019-03-24T09:07:27.741Z,55.38
2019-03-24T09:10:01.164Z,51.54
2019-03-24T09:12:31.928Z,55.71
2019-03-24T09:15:02.606Z,53.58
2019-03-24T09:17:33.649Z,57.52
2019-03-24T09:20:05.322Z,57.54
2019-03-24T09:22:36.025Z,55.58
2019-03-24T09:25:07.980Z,55.75
2019-03-24T09:27:38.943Z,58.24
2019-03-24T09:30:34.601Z,58.30
2019-03-24T09:33:05.483Z,54.12
2019-03-24T09:35:36.280Z,53.56
2019-03-24T09:38:07.502Z,51.11
2019-03-24T09:40:38.373Z,50.92
2019-03-24T09:43:12.213Z,50.43
2019-03-24T09:45:42.951Z,50.76
2019-03-24T09:48:13.720Z,51.81
2019-03-24T09:50:44.515Z,50.67
2019-03-24T09:53:15.192Z,51.12
2019-03-24T09:55:46.202Z,50.63
2019-03-24T09:58:16.949Z,49.21
2019-03-24T10:00:47.693Z,47.22
2019-03-24T10:03:18.410Z,48.00
2019-03-24T10:05:49.095Z,47.79
2019-03-24T10:08:19.890Z,48.64
2019-03-24T10:10:50.827Z,47.26
2019-03-24T10:13:21.663Z,47.10
2019-03-24T10:15:52.426Z,45.43
2019-03-24T10:18:23.311Z,46.06
2019-03-24T10:20:53.991Z,45.82
2019-03-24T10:23:24.679Z,46.01
2019-03-24T10:25:55.865Z,46.55
2019-03-24T10:28:26.580Z,45.61
2019-03-24T10:30:57.410Z,46.24
2019-03-24T10:33:28.154Z,43.93
2019-03-24T10:35:58.885Z,47.42
2019-03-24T10:38:29.595Z,43.95
2019-03-24T10:41:00.283Z,43.41
2019-03-24T10:43:31.596Z,45.39
2019-03-24T10:46:02.458Z,54.22
2019-03-24T10:48:34.053Z,43.83
2019-03-24T10:51:05.261Z,42.57
2019-03-24T10:53:36.164Z,41.13
2019-03-24T10:56:07.576Z,41.34
2019-03-24T10:58:38.534Z,41.26
2019-03-24T11:01:09.488Z,39.04
2019-03-24T11:03:42.107Z,38.36
2019-03-24T11:06:12.978Z,38.72
2019-03-24T11:08:44.098Z,45.14
2019-03-24T11:11:14.946Z,43.72
2019-03-24T11:13:46.314Z,41.10
2019-03-24T11:16:17.606Z,41.19
2019-03-24T11:18:48.492Z,40.37
2019-03-24T11:21:24.072Z,38.14
2019-03-24T11:23:54.954Z,37.44
2019-03-24T11:26:25.734Z,39.58
2019-03-24T11:28:56.513Z,39.66
2019-03-24T11:31:27.445Z,40.52
2019-03-24T11:33:58.357Z,39.57
2019-03-24T11:36:29.527Z,39.13
2019-03-24T11:39:00.839Z,39.82
2019-03-24T11:41:31.887Z,40.80
2019-03-24T11:44:02.783Z,40.43
2019-03-24T11:46:33.590Z,38.75
2019-03-24T11:49:04.385Z,37.42
2019-03-24T11:51:35.541Z,38.43
2019-03-24T11:54:06.219Z,37.81
2019-03-24T11:56:37.470Z,37.54
2019-03-24T11:59:08.363Z,37.50
2019-03-24T12:01:39.649Z,35.40
2019-03-24T12:04:10.603Z,38.35
2019-03-24T12:06:41.313Z,38.56
2019-03-24T12:09:12.175Z,37.24
2019-03-24T12:11:43.188Z,37.31
2019-03-24T12:14:14.533Z,38.05
2019-03-24T12:16:45.463Z,38.40
2019-03-24T12:19:16.252Z,36.66
2019-03-24T12:21:47.016Z,36.23
2019-03-24T12:24:17.777Z,36.16
2019-03-24T12:26:48.739Z,36.12
2019-03-24T12:29:19.502Z,34.54
2019-03-24T12:31:50.305Z,34.49
2019-03-24T12:34:21.151Z,34.07
2019-03-24T12:36:51.909Z,34.10
2019-03-24T12:39:22.821Z,34.25
2019-03-24T12:41:53.498Z,33.55
2019-03-24T12:44:24.530Z,33.75
2019-03-24T12:46:55.314Z,35.51
2019-03-24T12:49:25.992Z,33.13
2019-03-24T12:51:56.787Z,33.11
2019-03-24T12:54:27.518Z,33.77
2019-03-24T12:56:58.303Z,33.49
2019-03-24T12:59:29.012Z,33.90
2019-03-24T13:01:59.704Z,33.72
2019-03-24T13:04:31.398Z,32.87
2019-03-24T13:07:02.655Z,32.29
2019-03-24T13:09:33.755Z,33.15
2019-03-24T13:12:05.028Z,34.30
2019-03-24T13:14:36.000Z,34.60
2019-03-24T13:17:07.139Z,34.31
2019-03-24T13:19:38.333Z,33.98
2019-03-24T13:22:09.303Z,35.38
2019-03-24T13:24:40.739Z,35.48
2019-03-24T13:27:11.451Z,34.56
2019-03-24T13:29:42.230Z,33.86
2019-03-24T13:32:12.909Z,33.33
2019-03-24T13:34:43.688Z,32.58
2019-03-24T13:37:14.669Z,33.16
2019-03-24T13:39:45.369Z,33.76
2019-03-24T13:42:16.181Z,33.45
2019-03-24T13:44:47.101Z,35.47
2019-03-24T13:47:17.994Z,34.32
2019-03-24T13:49:48.932Z,34.00
2019-03-24T13:52:20.293Z,35.20
2019-03-24T13:54:52.114Z,35.54
2019-03-24T13:57:23.443Z,35.23
2019-03-24T13:59:54.308Z,34.42
2019-03-24T14:02:26.197Z,34.48
2019-03-24T14:04:57.437Z,34.37
2019-03-24T14:07:28.170Z,35.38
2019-03-24T14:09:59.043Z,35.10
2019-03-24T14:12:29.840Z,35.25
2019-03-24T14:15:00.598Z,38.09
2019-03-24T14:17:32.115Z,41.12
2019-03-24T14:20:02.950Z,41.63
2019-03-24T14:22:34.505Z,39.94
2019-03-24T14:25:05.760Z,39.57
2019-03-24T14:27:36.759Z,39.89
2019-03-24T14:30:08.911Z,41.13
2019-03-24T14:32:39.718Z,41.90
2019-03-24T14:35:11.123Z,42.32
2019-03-24T14:37:42.643Z,42.80
2019-03-24T14:40:17.280Z,43.34
2019-03-24T14:42:48.138Z,43.60
2019-03-24T14:45:19.568Z,43.21
2019-03-24T14:47:50.528Z,41.77
2019-03-24T14:50:22.061Z,43.30
2019-03-24T14:52:53.045Z,43.12
2019-03-24T14:55:23.920Z,42.78
2019-03-24T14:57:55.076Z,43.67
2019-03-24T15:00:37.261Z,42.62
2019-03-24T15:03:11.294Z,42.36
2019-03-24T15:05:42.566Z,42.45
2019-03-24T15:08:14.101Z,42.77
2019-03-24T15:10:52.466Z,44.15
2019-03-24T15:13:23.662Z,44.29
2019-03-24T15:15:54.461Z,44.38
2019-03-24T15:18:36.508Z,44.56
2019-03-24T15:21:11.510Z,44.29
2019-03-24T15:23:42.742Z,44.03
2019-03-24T15:26:13.969Z,44.85
2019-03-24T15:28:46.147Z,44.83
2019-03-24T15:31:16.995Z,44.36
2019-03-24T15:33:48.059Z,45.00
2019-03-24T15:36:19.010Z,44.94
2019-03-24T15:38:50.165Z,44.54
2019-03-24T15:41:21.136Z,44.88
2019-03-24T15:43:52.610Z,44.55
2019-03-24T15:46:26.647Z,42.44
2019-03-24T15:48:57.694Z,43.38
2019-03-24T15:51:28.512Z,44.23
2019-03-24T15:53:59.645Z,44.43
2019-03-24T15:56:30.357Z,43.59
2019-03-24T15:59:01.854Z,42.76
2019-03-24T16:01:32.714Z,43.19
2019-03-24T16:04:03.932Z,44.18
2019-03-24T16:06:35.904Z,44.25
2019-03-24T16:09:09.027Z,44.55
2019-03-24T16:11:40.508Z,44.52
2019-03-24T16:14:18.280Z,44.63
2019-03-24T16:16:49.250Z,45.12
2019-03-24T16:19:20.077Z,50.87
2019-03-24T16:21:50.890Z,43.90
2019-03-24T16:24:24.897Z,45.02
2019-03-24T16:26:55.587Z,45.01
2019-03-24T16:29:26.557Z,45.78
2019-03-24T16:31:57.483Z,46.76
2019-03-24T16:34:28.657Z,45.19
2019-03-24T16:36:59.507Z,45.35
2019-03-24T16:39:30.487Z,45.49
2019-03-24T16:42:02.286Z,44.95
2019-03-24T16:44:33.787Z,44.46
2019-03-24T16:47:04.591Z,43.79
2019-03-24T16:49:35.668Z,44.51
2019-03-24T16:52:06.950Z,43.59
2019-03-24T16:54:38.130Z,44.71
2019-03-24T16:57:08.902Z,44.37
2019-03-24T16:59:40.439Z,43.90
2019-03-24T17:02:11.536Z,44.47
2019-03-24T17:04:42.428Z,44.53
2019-03-24T17:07:13.697Z,45.02
2019-03-24T17:09:44.699Z,45.09
2019-03-24T17:12:15.477Z,44.09
2019-03-24T17:14:46.422Z,44.70
2019-03-24T17:17:17.387Z,43.82
2019-03-24T17:19:48.511Z,44.55
2019-03-24T17:22:19.540Z,44.37
2019-03-24T17:24:51.137Z,43.75
2019-03-24T17:27:22.090Z,44.13
2019-03-24T17:29:52.976Z,43.81
2019-03-24T17:32:23.892Z,44.34
2019-03-24T17:34:54.871Z,44.15
2019-03-24T17:37:25.980Z,43.08
2019-03-24T17:39:56.748Z,43.59
2019-03-24T17:42:27.749Z,43.00
2019-03-24T17:44:58.526Z,42.53
2019-03-24T17:47:29.384Z,42.98
2019-03-24T17:50:00.408Z,43.14
2019-03-24T17:52:31.252Z,43.25
2019-03-24T17:55:02.802Z,43.04
2019-03-24T17:57:33.886Z,42.90
2019-03-24T18:00:09.884Z,43.03
2019-03-24T18:02:40.681Z,42.99
2019-03-24T18:05:12.335Z,43.21
2019-03-24T18:07:44.196Z,43.40
2019-03-24T18:10:15.376Z,43.86
2019-03-24T18:12:47.013Z,44.12
2019-03-24T18:15:18.079Z,43.88
2019-03-24T18:17:48.907Z,43.49
2019-03-24T18:20:31.098Z,43.80
2019-03-24T18:23:02.249Z,44.08
2019-03-24T18:25:33.304Z,43.88
2019-03-24T18:28:04.279Z,51.28
2019-03-24T18:30:35.620Z,44.03
2019-03-24T18:33:06.751Z,46.95
2019-03-24T18:35:38.092Z,43.81
2019-03-24T18:38:09.037Z,43.96
2019-03-24T18:40:40.915Z,44.28
2019-03-24T18:43:14.957Z,44.53
2019-03-24T18:45:45.795Z,44.38
2019-03-24T18:48:16.613Z,44.96
2019-03-24T18:50:47.462Z,44.93
2019-03-24T18:53:19.288Z,45.18
2019-03-24T18:55:50.301Z,45.33
2019-03-24T18:58:21.055Z,45.56
2019-03-24T19:00:51.901Z,45.81
2019-03-24T19:03:22.777Z,45.91
2019-03-24T19:05:53.686Z,45.99
2019-03-24T19:08:24.450Z,46.44
2019-03-24T19:10:55.217Z,46.74
2019-03-24T19:13:27.995Z,46.67
2019-03-24T19:15:59.408Z,46.60
2019-03-24T19:18:30.276Z,46.34
2019-03-24T19:21:01.016Z,46.96
2019-03-24T19:23:32.449Z,46.82
2019-03-24T19:26:03.153Z,46.84
2019-03-24T19:28:35.694Z,47.28
2019-03-24T19:31:06.624Z,46.99
2019-03-24T19:33:37.636Z,47.21
2019-03-24T19:36:09.223Z,47.42
2019-03-24T19:38:41.670Z,47.27
2019-03-24T19:41:13.962Z,47.89
2019-03-24T19:43:46.560Z,48.06
2019-03-24T19:46:17.619Z,48.19
2019-03-24T19:48:49.074Z,48.12
2019-03-24T19:51:20.554Z,48.43
2019-03-24T19:53:51.401Z,48.99
2019-03-24T19:56:22.359Z,48.84
2019-03-24T19:58:53.483Z,49.25
2019-03-24T20:01:24.312Z,48.84
2019-03-24T20:03:55.323Z,48.42
2019-03-24T20:06:26.143Z,48.70
2019-03-24T20:08:57.387Z,49.12
2019-03-24T20:11:29.875Z,48.79
2019-03-24T20:14:00.721Z,48.50
2019-03-24T20:16:31.646Z,48.06
2019-03-24T20:19:02.841Z,48.56
2019-03-24T20:21:34.462Z,48.40
2019-03-24T20:24:05.415Z,48.41
2019-03-24T20:26:36.552Z,48.47
2019-03-24T20:29:07.452Z,49.27
2019-03-24T20:31:39.301Z,48.76
2019-03-24T20:34:10.195Z,48.56
2019-03-24T20:36:41.280Z,48.63
2019-03-24T20:39:12.791Z,48.97
2019-03-24T20:41:43.588Z,49.11
2019-03-24T20:44:14.464Z,49.48
2019-03-24T20:46:45.824Z,49.53
2019-03-24T20:49:16.565Z,49.29
2019-03-24T20:51:47.372Z,48.95
2019-03-24T20:54:18.192Z,49.09
2019-03-24T20:56:49.295Z,48.89
2019-03-24T20:59:20.022Z,48.97
2019-03-24T21:01:50.825Z,48.70
2019-03-24T21:04:21.828Z,48.80
2019-03-24T21:06:52.615Z,48.90
2019-03-24T21:09:23.444Z,48.53
2019-03-24T21:11:54.351Z,48.11
2019-03-24T21:14:25.415Z,48.13
2019-03-24T21:16:57.510Z,48.88
2019-03-24T21:19:28.210Z,48.27
2019-03-24T21:21:58.972Z,48.67
2019-03-24T21:24:30.256Z,48.32
2019-03-24T21:27:01.036Z,48.65
2019-03-24T21:29:32.027Z,48.96
2019-03-24T21:32:03.856Z,48.53
2019-03-24T21:34:35.009Z,48.64
2019-03-24T21:37:06.336Z,48.59
2019-03-24T21:39:37.410Z,49.27
2019-03-24T21:42:08.207Z,49.34
2019-03-24T21:44:39.488Z,49.72
2019-03-24T21:47:10.405Z,49.22
2019-03-24T21:49:41.082Z,49.35
2019-03-24T21:52:12.457Z,49.15
2019-03-24T21:54:43.317Z,49.27
2019-03-24T21:57:14.049Z,49.29
2019-03-24T21:59:44.925Z,49.59
2019-03-24T22:02:15.792Z,49.50
2019-03-24T22:04:46.866Z,49.69
2019-03-24T22:07:17.540Z,49.78
2019-03-24T22:09:48.340Z,50.31
2019-03-24T22:12:19.101Z,50.30
2019-03-24T22:14:50.446Z,50.52
2019-03-24T22:17:21.181Z,50.72
2019-03-24T22:19:51.993Z,50.77
2019-03-24T22:22:22.683Z,51.94
2019-03-24T22:24:53.895Z,52.03
2019-03-24T22:27:25.037Z,51.18
2019-03-24T22:29:55.813Z,51.12
2019-03-24T22:32:26.614Z,50.60
2019-03-24T22:34:57.782Z,50.19
2019-03-24T22:37:28.492Z,50.64
2019-03-24T22:39:59.466Z,50.66
2019-03-24T22:42:30.646Z,50.44
2019-03-24T22:45:01.426Z,50.31
2019-03-24T22:47:32.201Z,50.58
2019-03-24T22:50:03.142Z,50.42
2019-03-24T22:52:34.262Z,50.70
2019-03-24T22:55:05.917Z,50.46
2019-03-24T22:57:36.694Z,50.84
2019-03-24T23:00:15.136Z,50.77
2019-03-24T23:02:46.051Z,51.39
2019-03-24T23:05:16.824Z,51.03
2019-03-24T23:07:47.741Z,50.98
2019-03-24T23:10:19.382Z,51.39
2019-03-24T23:12:50.396Z,51.01
2019-03-24T23:15:21.113Z,51.28
2019-03-24T23:17:51.818Z,50.93
2019-03-24T23:20:22.708Z,50.70
2019-03-24T23:22:53.414Z,50.72
2019-03-24T23:25:24.127Z,51.21
2019-03-24T23:27:54.837Z,51.22
2019-03-24T23:30:25.532Z,51.15
2019-03-24T23:32:56.206Z,51.07
2019-03-24T23:35:26.932Z,51.39
2019-03-24T23:37:57.678Z,51.29
2019-03-24T23:40:28.471Z,52.03
2019-03-24T23:42:59.330Z,51.57
2019-03-24T23:45:30.546Z,51.51
2019-03-24T23:48:01.395Z,52.05
2019-03-24T23:50:32.078Z,51.98
2019-03-24T23:53:02.764Z,51.89
2019-03-24T23:55:34.425Z,53.55
2019-03-24T23:58:06.108Z,52.50
